Time;durP1;ratioP1;P1;durP2;ratioP2;P2;SDS_P1;SDS_P2;PMS_P1;PMS_P2;Temp;Humidity;BMP_temperature;BMP_pressure;BME280_temperature;BME280_humidity;BME280_pressure;Samples;Min_cycle;Max_cycle;Signal;HPM_P1;HPM_P2
2023/04/29 04:43:57;;;;;;;13.15;6.10;;;13.30;69.50;;;;;;4731487;30;20071;-72
2023/04/29 04:46:22;;;;;;;15.93;6.47;;;13.30;70.30;;;;;;4729764;30;20049;-74
2023/04/29 04:48:48;;;;;;;12.05;5.03;;;13.40;70.70;;;;;;4720942;30;20120;-72
2023/04/29 04:51:14;;;;;;;15.57;5.20;;;13.50;70.70;;;;;;4742763;30;20052;-74
2023/04/29 04:53:40;;;;;;;14.40;4.57;;;13.70;70.50;;;;;;4719135;30;20059;-73
2023/04/29 04:56:06;;;;;;;11.82;4.68;;;13.90;70.40;;;;;;4735073;30;20052;-72
2023/04/29 04:58:32;;;;;;;17.63;4.40;;;14.10;70.50;;;;;;4736448;30;20384;-73
2023/04/29 05:00:59;;;;;;;14.70;4.57;;;14.30;70.40;;;;;;4736815;30;20060;-70
2023/04/29 05:03:25;;;;;;;16.88;4.63;;;14.50;70.20;;;;;;4736723;30;20360;-71
2023/04/29 05:05:55;;;;;;;14.82;4.47;;;14.60;70.10;;;;;;4736695;30;20483;-69
2023/04/29 05:08:21;;;;;;;13.73;4.13;;;14.70;70.30;;;;;;4737329;30;20048;-72
2023/04/29 05:10:47;;;;;;;13.95;4.63;;;14.80;70.30;;;;;;4729711;30;20063;-70
2023/04/29 05:13:14;;;;;;;16.45;3.70;;;14.90;70.40;;;;;;4719028;30;20433;-71
2023/04/29 05:15:40;;;;;;;18.45;4.28;;;14.90;70.40;;;;;;4718860;30;20381;-70
2023/04/29 05:18:06;;;;;;;22.40;5.60;;;14.90;70.40;;;;;;4735098;30;20052;-71
2023/04/29 05:20:32;;;;;;;14.70;4.38;;;15.00;70.50;;;;;;4740471;30;20052;-71
2023/04/29 05:22:57;;;;;;;24.05;4.60;;;15.00;70.70;;;;;;4740150;30;20111;-71
2023/04/29 05:25:23;;;;;;;30.25;4.90;;;15.00;70.90;;;;;;4739489;30;20469;-71
2023/04/29 05:27:49;;;;;;;20.85;4.78;;;15.00;71.10;;;;;;4739919;30;20053;-71
2023/04/29 05:30:15;;;;;;;19.10;3.90;;;15.00;71.30;;;;;;4740191;30;20408;-71
2023/04/29 05:32:41;;;;;;;21.50;5.07;;;15.00;71.70;;;;;;4739692;30;20064;-71
2023/04/29 05:35:07;;;;;;;26.70;5.47;;;15.00;71.70;;;;;;4740373;30;20054;-71
2023/04/29 05:37:33;;;;;;;25.23;4.80;;;15.00;72.00;;;;;;4739670;30;20056;-70
2023/04/29 05:39:58;;;;;;;29.70;5.43;;;15.10;72.30;;;;;;4740107;30;20060;-71
2023/04/29 05:42:25;;;;;;;23.42;5.07;;;15.10;72.30;;;;;;4740186;30;20056;-70
2023/04/29 05:44:50;;;;;;;26.95;5.10;;;15.10;72.30;;;;;;4724256;30;20061;-71
2023/04/29 05:47:16;;;;;;;22.75;4.70;;;15.10;72.20;;;;;;4719169;30;20499;-71
2023/04/29 05:49:42;;;;;;;26.40;5.15;;;15.20;72.30;;;;;;4721690;30;20161;-71
2023/04/29 05:52:07;;;;;;;19.95;4.43;;;15.20;72.60;;;;;;4722120;30;20088;-71
2023/04/29 05:54:34;;;;;;;20.20;4.97;;;15.30;72.70;;;;;;4735543;30;20407;-71
2023/04/29 05:57:02;;;;;;;14.65;3.78;;;15.40;72.80;;;;;;4722146;30;20057;-70
2023/04/29 05:59:32;;;;;;;17.38;3.88;;;15.40;72.50;;;;;;4721734;30;20053;-71
2023/04/29 06:01:59;;;;;;;27.00;3.97;;;15.60;72.30;;;;;;4722347;30;20088;-70
2023/04/29 06:04:25;;;;;;;14.43;3.97;;;15.70;72.10;;;;;;4722132;30;20440;-70
2023/04/29 06:06:52;;;;;;;15.00;3.30;;;15.70;66.00;;;;;;4721177;30;20485;-72
2023/04/29 06:09:19;;;;;;;24.55;3.90;;;15.60;70.30;;;;;;4722512;30;20061;-73
2023/04/29 06:11:45;;;;;;;17.90;4.10;;;15.70;71.20;;;;;;4706828;30;20405;-73
2023/04/29 06:14:11;;;;;;;28.42;4.28;;;15.80;72.10;;;;;;4722132;30;20053;-73
2023/04/29 06:16:38;;;;;;;27.45;4.18;;;15.80;71.00;;;;;;4721782;30;20370;-72
2023/04/29 06:19:03;;;;;;;37.35;4.82;;;15.90;70.10;;;;;;4727024;30;20053;-73
2023/04/29 06:21:30;;;;;;;23.25;4.88;;;15.90;69.10;;;;;;4739216;30;20057;-71
2023/04/29 06:23:56;;;;;;;25.38;4.90;;;15.90;68.90;;;;;;4739656;30;20057;-72
2023/04/29 06:26:22;;;;;;;19.65;4.45;;;15.90;68.30;;;;;;4723748;30;20052;-72
2023/04/29 06:28:48;;;;;;;20.17;4.00;;;15.80;67.70;;;;;;4738372;30;20048;-72
2023/04/29 06:31:14;;;;;;;19.40;4.00;;;15.80;67.50;;;;;;4738950;30;20053;-71
2023/04/29 06:33:40;;;;;;;15.63;3.78;;;15.80;67.60;;;;;;4739193;30;20056;-72
2023/04/29 06:36:06;;;;;;;13.55;3.22;;;15.80;67.50;;;;;;4738702;30;20087;-71
2023/04/29 06:38:32;;;;;;;13.45;2.97;;;15.70;67.50;;;;;;4738528;30;20469;-72
2023/04/29 06:40:59;;;;;;;11.88;2.95;;;15.70;67.60;;;;;;4739292;30;20049;-72
2023/04/29 06:43:26;;;;;;;14.32;3.35;;;15.70;67.70;;;;;;4748317;30;20075;-72
2023/04/29 06:45:52;;;;;;;13.38;2.60;;;15.70;67.80;;;;;;4756125;30;20471;-71
2023/04/29 06:48:18;;;;;;;13.45;3.08;;;15.60;67.80;;;;;;4740994;30;20052;-72
2023/04/29 06:50:55;;;;;;;8.00;2.22;;;15.60;67.80;;;;;;4756291;30;20544;-72
2023/04/29 06:53:21;;;;;;;11.52;2.72;;;15.60;67.70;;;;;;4749059;30;20071;-72
2023/04/29 06:55:47;;;;;;;14.98;3.65;;;15.60;68.10;;;;;;4756070;30;20052;-72
2023/04/29 06:58:13;;;;;;;11.48;3.08;;;15.60;68.30;;;;;;4755863;30;20078;-73
2023/04/29 07:00:40;;;;;;;8.85;2.17;;;15.50;68.70;;;;;;4755973;30;20452;-72
2023/04/29 07:03:06;;;;;;;7.78;1.95;;;15.50;69.10;;;;;;4756129;30;20470;-72
2023/04/29 07:05:31;;;;;;;9.10;2.30;;;15.50;69.50;;;;;;4755951;30;20056;-72
2023/04/29 07:07:57;;;;;;;7.13;2.25;;;15.50;69.70;;;;;;4755954;30;20053;-72
2023/04/29 07:10:25;;;;;;;8.15;2.25;;;15.50;70.10;;;;;;4740577;30;20064;-72
2023/04/29 07:12:50;;;;;;;6.22;2.10;;;15.50;70.30;;;;;;4756143;30;20365;-72
2023/04/29 07:15:16;;;;;;;7.68;2.17;;;15.50;70.60;;;;;;4755589;30;20064;-72
2023/04/29 07:17:42;;;;;;;5.97;1.80;;;15.40;70.70;;;;;;4755963;30;20143;-72
2023/04/29 07:20:08;;;;;;;4.65;1.92;;;15.40;70.90;;;;;;4755826;30;20131;-72
2023/04/29 07:22:34;;;;;;;5.95;1.92;;;15.50;71.10;;;;;;4755823;30;20048;-72
2023/04/29 07:25:00;;;;;;;4.95;1.83;;;15.50;71.20;;;;;;4755525;30;20067;-73
2023/04/29 07:27:26;;;;;;;9.10;2.45;;;15.50;71.20;;;;;;4755314;30;20048;-72
2023/04/29 07:29:51;;;;;;;5.68;1.90;;;15.50;71.30;;;;;;4755688;30;20059;-73
2023/04/29 07:32:17;;;;;;;6.53;1.92;;;15.50;71.30;;;;;;4755349;30;20517;-72
2023/04/29 07:34:43;;;;;;;7.95;2.08;;;15.50;71.20;;;;;;4755647;30;20052;-72
2023/04/29 07:37:08;;;;;;;7.78;2.33;;;15.50;71.10;;;;;;4755376;30;20056;-72
2023/04/29 07:39:35;;;;;;;5.65;1.60;;;15.50;71.10;;;;;;4754539;30;20159;-72
2023/04/29 07:42:01;;;;;;;13.02;2.42;;;15.50;70.90;;;;;;4751441;30;20063;-72
2023/04/29 07:44:28;;;;;;;4.90;1.77;;;15.50;70.60;;;;;;4728977;30;20080;-72
2023/04/29 07:46:53;;;;;;;5.78;1.70;;;15.50;70.30;;;;;;4719236;30;20144;-73
2023/04/29 07:49:22;;;;;;;10.55;3.08;;;15.50;70.10;;;;;;4734357;30;20057;-72
2023/04/29 07:51:48;;;;;;;5.95;3.03;;;15.50;69.20;;;;;;4720144;30;20067;-72
2023/04/29 07:54:15;;;;;;;8.85;3.40;;;15.50;68.40;;;;;;4734304;30;20056;-77
2023/04/29 07:56:41;;;;;;;6.45;3.50;;;15.50;67.50;;;;;;4745187;30;20126;-72
2023/04/29 07:59:06;;;;;;;7.63;3.10;;;15.50;67.00;;;;;;4736958;30;20049;-74
2023/04/29 08:01:32;;;;;;;6.38;3.10;;;15.50;66.70;;;;;;4736460;30;20121;-73
2023/04/29 08:03:58;;;;;;;8.98;3.08;;;15.50;66.30;;;;;;4737158;30;20130;-71
2023/04/29 08:06:23;;;;;;;6.30;2.45;;;15.50;66.00;;;;;;4733565;30;20048;-72
2023/04/29 08:08:50;;;;;;;7.40;2.97;;;15.50;66.00;;;;;;4737089;30;20056;-72
2023/04/29 08:11:19;;;;;;;7.60;4.18;;;15.50;65.70;;;;;;4731486;30;20088;-71
2023/04/29 08:13:46;;;;;;;8.35;4.18;;;15.50;64.10;;;;;;4736380;30;20103;-71
2023/04/29 08:16:12;;;;;;;8.23;3.42;;;15.40;63.70;;;;;;4736431;30;20053;-72
2023/04/29 08:18:39;;;;;;;13.38;4.10;;;15.40;63.90;;;;;;4732346;30;20084;-71
2023/04/29 08:21:05;;;;;;;9.38;4.00;;;15.40;64.70;;;;;;4736983;30;20052;-73
2023/04/29 08:23:31;;;;;;;5.97;3.15;;;15.40;64.80;;;;;;4736620;30;20056;-73
2023/04/29 08:25:57;;;;;;;8.68;3.47;;;15.40;65.60;;;;;;4737072;30;20056;-72
2023/04/29 08:28:24;;;;;;;9.27;3.40;;;15.40;66.00;;;;;;4737230;30;20049;-73
2023/04/29 08:30:50;;;;;;;10.70;3.00;;;15.40;66.20;;;;;;4737204;30;20052;-72
2023/04/29 08:33:16;;;;;;;9.18;3.47;;;15.40;66.20;;;;;;4733349;30;20053;-73
2023/04/29 08:35:42;;;;;;;12.73;3.67;;;15.30;66.00;;;;;;4734624;30;20056;-73
2023/04/29 08:38:08;;;;;;;6.57;3.45;;;15.30;65.90;;;;;;4736745;30;20049;-72
2023/04/29 08:40:45;;;;;;;7.70;3.03;;;15.30;66.00;;;;;;4737138;30;20067;-72
2023/04/29 08:43:14;;;;;;;9.68;3.38;;;15.30;66.30;;;;;;4736386;30;20383;-72
2023/04/29 08:45:42;;;;;;;6.50;2.92;;;15.30;66.40;;;;;;4736624;30;20456;-72
2023/04/29 08:48:08;;;;;;;7.32;3.20;;;15.30;66.60;;;;;;4736812;30;20053;-72
2023/04/29 08:50:40;;;;;;;5.45;2.83;;;15.40;66.70;;;;;;4746522;30;20060;-71
2023/04/29 08:53:10;;;;;;;8.60;3.30;;;15.30;66.50;;;;;;4754066;30;20465;-73
2023/04/29 08:55:41;;;;;;;6.30;3.15;;;15.40;66.40;;;;;;4754068;30;20448;-74
2023/04/29 08:58:07;;;;;;;8.80;3.75;;;15.30;66.90;;;;;;4754318;30;20052;-73
2023/04/29 09:00:35;;;;;;;7.93;3.53;;;15.40;66.30;;;;;;4754162;30;20079;-73
2023/04/29 09:03:11;;;;;;;7.65;3.05;;;15.40;66.10;;;;;;4754013;30;20048;-72
2023/04/29 09:05:41;;;;;;;7.90;3.38;;;15.40;66.00;;;;;;4734516;30;20049;-71
2023/04/29 09:08:07;;;;;;;8.15;3.83;;;15.40;66.10;;;;;;4736806;30;20135;-71
2023/04/29 09:10:36;;;;;;;7.72;3.08;;;15.40;66.40;;;;;;4736674;30;20049;-71
2023/04/29 09:13:02;;;;;;;8.02;3.17;;;15.40;66.30;;;;;;4734867;30;20053;-72
2023/04/29 09:15:28;;;;;;;8.63;3.03;;;15.40;66.40;;;;;;4734741;30;20053;-72
2023/04/29 09:17:57;;;;;;;4.78;3.25;;;15.40;66.50;;;;;;4727311;30;20134;-72
2023/04/29 09:20:23;;;;;;;11.90;3.25;;;15.40;66.20;;;;;;4732852;30;20378;-72
2023/04/29 09:22:53;;;;;;;13.43;3.80;;;15.40;66.40;;;;;;4728206;30;20053;-71
2023/04/29 09:25:20;;;;;;;10.00;3.72;;;15.40;66.70;;;;;;4736698;30;20057;-71
2023/04/29 09:27:46;;;;;;;19.13;4.30;;;15.40;67.70;;;;;;4736450;30;20377;-71
2023/04/29 09:30:14;;;;;;;22.88;4.40;;;15.50;68.00;;;;;;4736523;30;20053;-69
2023/04/29 09:32:40;;;;;;;20.08;3.92;;;15.50;68.40;;;;;;4736855;30;20369;-73
2023/04/29 09:35:26;;;;;;;11.57;3.72;;;15.60;68.70;;;;;;4720966;30;20146;-71
2023/04/29 09:38:06;;;;;;;16.63;4.55;;;15.60;67.80;;;;;;4743925;30;20048;-75
2023/04/29 09:40:33;;;;;;;18.88;4.07;;;15.60;68.40;;;;;;4753489;30;20472;-70
2023/04/29 09:42:59;;;;;;;19.30;4.20;;;15.70;68.90;;;;;;4748061;30;20055;-72
2023/04/29 09:45:35;;;;;;;13.27;3.40;;;15.70;69.00;;;;;;4717630;30;20215;-76
2023/04/29 09:48:05;;;;;;;22.10;3.80;;;15.70;68.70;;;;;;4726955;30;20067;-71
2023/04/29 09:50:31;;;;;;;14.07;3.83;;;15.70;68.30;;;;;;4736157;30;20500;-77
2023/04/29 09:52:58;;;;;;;15.70;3.75;;;15.70;68.00;;;;;;4736205;30;20056;-79
2023/04/29 09:55:28;;;;;;;15.57;3.60;;;15.70;67.80;;;;;;4735929;30;20173;-75
2023/04/29 09:57:55;;;;;;;11.07;3.75;;;15.70;67.70;;;;;;4734312;30;20064;-74
2023/04/29 10:00:21;;;;;;;15.05;3.58;;;15.70;67.50;;;;;;4735122;30;20091;-73
2023/04/29 10:02:48;;;;;;;18.23;3.50;;;15.70;66.90;;;;;;4737244;30;20049;-74
2023/04/29 10:05:17;;;;;;;19.10;3.40;;;15.70;66.80;;;;;;4756584;30;20087;-74
2023/04/29 10:07:46;;;;;;;29.10;4.60;;;15.70;66.40;;;;;;4756727;30;20056;-74
2023/04/29 10:10:12;;;;;;;25.65;4.25;;;15.70;66.20;;;;;;4756894;30;20054;-72
2023/04/29 10:12:39;;;;;;;25.40;3.88;;;15.70;66.70;;;;;;4751981;30;20053;-73
2023/04/29 10:15:08;;;;;;;17.95;3.20;;;15.70;66.70;;;;;;4739199;30;20064;-74
2023/04/29 10:17:36;;;;;;;15.93;3.33;;;15.70;66.60;;;;;;4739266;30;20516;-71
2023/04/29 10:20:04;;;;;;;26.08;4.60;;;15.70;66.50;;;;;;4738893;30;20045;-71
2023/04/29 10:22:45;;;;;;;12.27;3.00;;;15.70;66.50;;;;;;4738925;30;20060;-72
2023/04/29 10:25:13;;;;;;;16.58;3.80;;;15.70;66.40;;;;;;4739060;30;20060;-72
2023/04/29 10:27:42;;;;;;;12.57;3.17;;;15.70;66.20;;;;;;4733372;30;20052;-72
2023/04/29 10:30:12;;;;;;;17.98;3.30;;;15.70;65.90;;;;;;4739003;30;20473;-75
2023/04/29 10:32:40;;;;;;;14.60;3.15;;;15.70;65.80;;;;;;4738710;30;20053;-73
2023/04/29 10:35:11;;;;;;;21.73;4.03;;;15.70;65.80;;;;;;4738881;30;20049;-73
2023/04/29 10:37:37;;;;;;;13.82;2.83;;;15.70;66.00;;;;;;4738270;30;20055;-73
2023/04/29 10:40:27;;;;;;;16.95;3.45;;;15.70;66.20;;;;;;4738150;30;20049;-72
2023/04/29 10:42:54;;;;;;;10.10;2.95;;;15.70;66.50;;;;;;4717635;30;20124;-73
2023/04/29 10:45:26;;;;;;;14.82;3.33;;;15.70;66.60;;;;;;4705736;30;20133;-72
2023/04/29 10:48:10;;;;;;;11.57;2.92;;;15.70;66.60;;;;;;4720985;30;20119;-72
2023/04/29 10:50:58;;;;;;;12.40;3.17;;;15.70;66.80;;;;;;4705654;30;20064;-73
2023/04/29 10:53:25;;;;;;;8.65;2.30;;;15.70;66.80;;;;;;4705313;30;20049;-73
2023/04/29 10:56:03;;;;;;;11.73;2.90;;;15.70;66.90;;;;;;4720721;30;20053;-72
2023/04/29 10:58:44;;;;;;;7.13;2.25;;;15.70;67.00;;;;;;4720647;30;20061;-72
2023/04/29 11:01:15;;;;;;;7.88;2.17;;;15.70;67.10;;;;;;4705604;30;20053;-74
2023/04/29 11:03:54;;;;;;;10.68;2.58;;;15.70;67.10;;;;;;4705574;30;20476;-74
2023/04/29 11:06:23;;;;;;;7.50;2.13;;;15.70;67.10;;;;;;4720642;30;20049;-74
2023/04/29 11:09:00;;;;;;;6.95;2.05;;;15.70;67.20;;;;;;4717655;30;20092;-74
2023/04/29 11:11:25;;;;;;;9.70;1.98;;;15.70;67.10;;;;;;4710567;30;20056;-75
2023/04/29 11:13:51;;;;;;;5.80;1.77;;;15.70;66.90;;;;;;4734406;30;20061;-72
2023/04/29 11:16:28;;;;;;;3.55;1.67;;;15.60;66.10;;;;;;4718530;30;20136;-72
2023/04/29 11:19:08;;;;;;;7.50;2.17;;;15.60;65.30;;;;;;4717724;30;20061;-73
2023/04/29 11:21:35;;;;;;;4.82;2.03;;;15.60;65.00;;;;;;4705078;30;20057;-76
2023/04/29 11:24:02;;;;;;;4.38;1.60;;;15.60;64.90;;;;;;4720815;30;20093;-74
2023/04/29 11:26:28;;;;;;;6.82;1.70;;;15.60;64.80;;;;;;4705011;30;20115;-74
2023/04/29 11:28:56;;;;;;;8.00;2.03;;;15.60;64.90;;;;;;4720525;30;20060;-73
2023/04/29 11:31:32;;;;;;;6.70;1.80;;;15.60;65.00;;;;;;4720418;30;20131;-73
2023/04/29 11:33:58;;;;;;;3.63;1.20;;;15.60;65.00;;;;;;4720166;30;20071;-73
2023/04/29 11:36:26;;;;;;;5.65;1.98;;;15.60;65.20;;;;;;4719920;30;20126;-74
2023/04/29 11:38:52;;;;;;;3.53;1.42;;;15.60;65.20;;;;;;4720076;30;20083;-73
2023/04/29 11:41:18;;;;;;;7.80;1.30;;;15.60;65.30;;;;;;4719884;30;20500;-73
2023/04/29 11:43:53;;;;;;;6.30;1.80;;;15.60;65.40;;;;;;4731400;30;20057;-74
2023/04/29 11:46:19;;;;;;;3.63;1.30;;;15.60;65.50;;;;;;4737148;30;20461;-74
2023/04/29 11:48:49;;;;;;;3.53;1.63;;;15.60;65.60;;;;;;4737420;30;20052;-73
2023/04/29 11:51:16;;;;;;;4.38;1.60;;;15.60;65.60;;;;;;4737496;30;20452;-74
2023/04/29 11:53:42;;;;;;;6.07;1.33;;;15.60;65.60;;;;;;4737320;30;20082;-73
2023/04/29 11:56:09;;;;;;;4.03;1.30;;;15.60;65.70;;;;;;4737561;30;20079;-74
2023/04/29 11:58:35;;;;;;;2.60;1.20;;;15.60;65.70;;;;;;4753860;30;20070;-73
2023/04/29 12:01:03;;;;;;;6.85;1.60;;;15.60;65.60;;;;;;4755038;30;20063;-73
2023/04/29 12:03:30;;;;;;;11.20;2.45;;;15.60;65.30;;;;;;4755662;30;20078;-74
2023/04/29 12:05:56;;;;;;;13.30;1.88;;;15.60;64.90;;;;;;4754879;30;20040;-72
2023/04/29 12:08:24;;;;;;;9.63;2.00;;;15.60;64.40;;;;;;4755047;30;20051;-72
2023/04/29 12:10:51;;;;;;;8.30;2.20;;;15.60;63.90;;;;;;4754604;30;20197;-73
2023/04/29 12:13:18;;;;;;;10.73;2.50;;;15.60;63.80;;;;;;4732834;30;20052;-72
2023/04/29 12:15:46;;;;;;;8.88;2.08;;;15.60;64.00;;;;;;4736676;30;20204;-73
2023/04/29 12:18:12;;;;;;;22.88;3.03;;;15.60;64.40;;;;;;4722084;30;20075;-78
2023/04/29 12:20:39;;;;;;;20.00;3.55;;;15.60;65.00;;;;;;4737171;30;20052;-77
2023/04/29 12:23:17;;;;;;;28.95;3.88;;;15.60;65.70;;;;;;4731710;30;20118;-77
2023/04/29 12:25:49;;;;;;;14.18;2.80;;;15.60;66.20;;;;;;4719351;30;20454;-78
2023/04/29 12:28:16;;;;;;;18.05;2.55;;;15.70;66.30;;;;;;4719641;30;20083;-77
2023/04/29 12:30:46;;;;;;;11.93;2.42;;;15.70;66.40;;;;;;4719784;30;20136;-78
2023/04/29 12:33:27;;;;;;;12.82;2.38;;;15.70;66.60;;;;;;4719681;30;20067;-78
2023/04/29 12:35:56;;;;;;;13.35;2.35;;;15.70;66.70;;;;;;4719219;30;20053;-79
2023/04/29 12:38:29;;;;;;;14.30;2.78;;;15.60;66.80;;;;;;4724536;30;20072;-74
2023/04/29 12:40:57;;;;;;;12.55;3.05;;;15.60;66.80;;;;;;4750532;30;20056;-79
2023/04/29 12:43:27;;;;;;;13.25;2.58;;;15.70;66.90;;;;;;4750294;30;20145;-75
2023/04/29 12:45:59;;;;;;;12.18;2.42;;;15.70;67.00;;;;;;4734775;30;20479;-75
2023/04/29 12:48:32;;;;;;;17.00;2.42;;;15.70;67.00;;;;;;4721760;30;20361;-76
2023/04/29 12:50:59;;;;;;;8.32;2.50;;;15.70;67.20;;;;;;4736951;30;20040;-80
2023/04/29 12:53:26;;;;;;;17.17;2.60;;;15.70;67.10;;;;;;4736573;30;20052;-77
2023/04/29 12:55:52;;;;;;;17.08;2.13;;;15.70;67.20;;;;;;4736345;30;20103;-76
2023/04/29 12:58:19;;;;;;;12.07;2.35;;;15.70;66.90;;;;;;4738562;30;20060;-76
2023/04/29 13:00:45;;;;;;;6.70;1.80;;;15.70;63.40;;;;;;4754099;30;20064;-75
2023/04/29 13:03:11;;;;;;;6.63;2.35;;;15.70;62.50;;;;;;4754147;30;20460;-76
2023/04/29 13:05:37;;;;;;;8.13;2.10;;;15.70;60.20;;;;;;4753983;30;20048;-76
2023/04/29 13:08:06;;;;;;;9.73;2.38;;;15.60;59.80;;;;;;4754632;30;20059;-76
2023/04/29 13:10:32;;;;;;;12.82;2.50;;;15.60;60.40;;;;;;4754898;30;20488;-76
2023/04/29 13:12:58;;;;;;;8.98;2.00;;;15.50;61.10;;;;;;4754312;30;20044;-75
2023/04/29 13:15:25;;;;;;;7.25;1.70;;;15.50;61.80;;;;;;4753591;30;20457;-76
2023/04/29 13:17:51;;;;;;;6.47;1.90;;;15.60;62.40;;;;;;4754409;30;20066;-76
2023/04/29 13:20:17;;;;;;;9.93;1.90;;;15.60;62.70;;;;;;4754138;30;20134;-76
2023/04/29 13:22:43;;;;;;;5.65;1.90;;;15.60;62.90;;;;;;4754718;30;20110;-76
2023/04/29 13:25:11;;;;;;;6.35;1.90;;;15.60;63.20;;;;;;4754074;30;20056;-76
2023/04/29 13:27:37;;;;;;;6.75;1.60;;;15.60;63.30;;;;;;4753992;30;20072;-76
2023/04/29 13:30:05;;;;;;;7.00;1.85;;;15.60;63.50;;;;;;4754308;30;20365;-76
2023/04/29 13:32:30;;;;;;;8.25;1.70;;;15.60;63.70;;;;;;4754460;30;20056;-77
2023/04/29 13:34:56;;;;;;;4.63;1.40;;;15.60;63.70;;;;;;4753868;30;20056;-76
2023/04/29 13:37:22;;;;;;;3.25;1.20;;;15.60;63.90;;;;;;4754728;30;20048;-76
2023/04/29 13:39:48;;;;;;;7.07;1.48;;;15.60;64.00;;;;;;4757628;30;20094;-77
2023/04/29 13:42:13;;;;;;;4.15;1.35;;;15.70;64.30;;;;;;4757028;30;20465;-76
2023/04/29 13:44:43;;;;;;;6.60;1.85;;;15.60;64.40;;;;;;4757182;30;20100;-76
2023/04/29 13:47:12;;;;;;;4.03;1.27;;;15.70;64.50;;;;;;4757309;30;20063;-76
2023/04/29 13:49:43;;;;;;;3.92;1.48;;;15.70;64.60;;;;;;4757310;30;20058;-77
2023/04/29 13:52:09;;;;;;;4.72;1.58;;;15.60;64.50;;;;;;4757235;30;20479;-77
2023/04/29 13:54:35;;;;;;;5.00;1.50;;;15.70;64.70;;;;;;4757082;30;20059;-78
2023/04/29 13:57:02;;;;;;;4.03;1.60;;;15.70;64.70;;;;;;4757275;30;20067;-76
2023/04/29 13:59:33;;;;;;;3.15;1.33;;;15.70;65.40;;;;;;4756895;30;20048;-76
2023/04/29 14:01:59;;;;;;;3.50;1.30;;;15.70;64.90;;;;;;4757038;30;20058;-77
2023/04/29 14:04:26;;;;;;;5.32;1.58;;;15.70;65.00;;;;;;4757444;30;20083;-77
2023/04/29 14:06:53;;;;;;;9.68;1.50;;;15.70;65.70;;;;;;4757264;30;20064;-76
2023/04/29 14:09:20;;;;;;;2.85;1.58;;;15.70;65.10;;;;;;4757662;30;20052;-76
2023/04/29 14:11:46;;;;;;;5.18;1.90;;;15.70;65.20;;;;;;4756691;30;20060;-75
2023/04/29 14:14:12;;;;;;;5.40;1.65;;;15.70;65.50;;;;;;4756979;30;20099;-74
2023/04/29 14:16:39;;;;;;;9.85;2.30;;;15.70;65.30;;;;;;4740843;30;20476;-75
2023/04/29 14:19:05;;;;;;;13.70;2.53;;;15.70;65.30;;;;;;4756787;30;20044;-74
2023/04/29 14:21:32;;;;;;;14.95;3.95;;;15.70;65.60;;;;;;4756766;30;20051;-76
2023/04/29 14:23:58;;;;;;;16.48;3.45;;;15.70;65.50;;;;;;4756764;30;20134;-73
2023/04/29 14:26:25;;;;;;;19.23;4.18;;;15.80;65.30;;;;;;4756555;30;20063;-76
2023/04/29 14:28:56;;;;;;;16.58;4.90;;;15.80;64.70;;;;;;4740745;30;20062;-78
2023/04/29 14:31:42;;;;;;;16.95;6.00;;;15.80;64.70;;;;;;4740843;30;20388;-77
2023/04/29 14:34:08;;;;;;;14.35;5.50;;;15.80;65.00;;;;;;4755486;30;20152;-77
2023/04/29 14:36:34;;;;;;;43.72;8.85;;;15.80;64.80;;;;;;4756351;30;20189;-76
2023/04/29 14:39:00;;;;;;;34.10;7.85;;;15.80;64.00;;;;;;4756326;30;20135;-81
2023/04/29 14:41:27;;;;;;;22.98;7.07;;;15.80;63.90;;;;;;4756282;30;20040;-77
2023/04/29 14:43:53;;;;;;;24.48;7.60;;;15.80;65.20;;;;;;4756050;30;20531;-78
2023/04/29 14:46:20;;;;;;;28.08;7.00;;;15.80;66.00;;;;;;4756275;30;20153;-78
2023/04/29 14:48:47;;;;;;;18.90;5.65;;;15.80;66.70;;;;;;4751202;30;20053;-78
2023/04/29 14:51:12;;;;;;;21.08;6.40;;;15.80;67.10;;;;;;4738605;30;20542;-77
2023/04/29 14:53:38;;;;;;;26.77;6.88;;;15.80;67.60;;;;;;4751913;30;20092;-77
2023/04/29 14:56:04;;;;;;;32.20;6.65;;;15.80;67.90;;;;;;4738322;30;20132;-76
2023/04/29 14:58:30;;;;;;;26.80;6.45;;;15.80;67.90;;;;;;4738376;30;20045;-77
2023/04/29 15:00:55;;;;;;;21.15;5.88;;;15.90;68.30;;;;;;4738325;30;20052;-77
2023/04/29 15:03:22;;;;;;;22.45;6.22;;;15.90;68.40;;;;;;4738469;30;20079;-75
2023/04/29 15:05:50;;;;;;;24.92;6.68;;;15.90;68.60;;;;;;4738529;30;20071;-75
2023/04/29 15:08:17;;;;;;;20.45;5.80;;;15.90;68.80;;;;;;4738551;30;20383;-78
2023/04/29 15:10:45;;;;;;;23.48;6.28;;;15.90;68.80;;;;;;4738179;30;20052;-78
2023/04/29 15:13:11;;;;;;;20.35;6.28;;;15.90;68.90;;;;;;4737939;30;20060;-77
2023/04/29 15:15:37;;;;;;;25.60;6.90;;;15.90;69.00;;;;;;4738580;30;20055;-76
2023/04/29 15:18:04;;;;;;;32.17;7.45;;;15.90;69.30;;;;;;4722796;30;20060;-79
2023/04/29 15:20:31;;;;;;;32.42;6.30;;;15.90;69.40;;;;;;4722645;30;20052;-75
2023/04/29 15:22:57;;;;;;;35.28;7.03;;;15.90;69.70;;;;;;4730559;30;20068;-76
2023/04/29 15:25:23;;;;;;;47.42;9.07;;;16.00;69.80;;;;;;4721754;30;20335;-77
2023/04/29 15:27:49;;;;;;;32.95;7.45;;;16.00;70.00;;;;;;4736773;30;20053;-76
2023/04/29 15:30:16;;;;;;;29.02;5.90;;;16.00;69.00;;;;;;4742585;30;20058;-76
2023/04/29 15:32:41;;;;;;;21.90;6.13;;;16.00;67.70;;;;;;4752479;30;20056;-77
2023/04/29 15:35:07;;;;;;;24.75;6.00;;;16.00;66.70;;;;;;4754858;30;20062;-78
2023/04/29 15:37:33;;;;;;;20.45;6.10;;;16.10;65.60;;;;;;4753081;30;20052;-76
2023/04/29 15:40:03;;;;;;;14.45;4.93;;;16.00;65.00;;;;;;4746301;30;20524;-77
2023/04/29 15:42:28;;;;;;;18.75;4.60;;;16.10;64.90;;;;;;4737677;30;20122;-76
2023/04/29 15:44:54;;;;;;;27.83;5.97;;;16.00;65.00;;;;;;4737820;30;20453;-75
2023/04/29 15:47:21;;;;;;;28.73;5.82;;;16.00;65.80;;;;;;4737658;30;20056;-75
2023/04/29 15:49:48;;;;;;;22.42;4.93;;;16.00;65.40;;;;;;4722336;30;20194;-76
2023/04/29 15:52:13;;;;;;;22.88;5.20;;;16.10;65.70;;;;;;4737890;30;20059;-80
2023/04/29 15:54:39;;;;;;;26.45;6.32;;;16.00;66.40;;;;;;4722620;30;20361;-75
2023/04/29 15:57:05;;;;;;;32.60;8.05;;;16.10;66.10;;;;;;4737717;30;20133;-74
2023/04/29 15:59:31;;;;;;;37.60;7.18;;;16.10;65.60;;;;;;4751040;30;20057;-75
2023/04/29 16:01:57;;;;;;;32.58;6.13;;;16.10;64.40;;;;;;4737013;30;20045;-75
2023/04/29 16:04:23;;;;;;;26.00;7.15;;;16.10;64.80;;;;;;4737316;30;20121;-75
2023/04/29 16:06:50;;;;;;;26.33;6.45;;;16.00;64.60;;;;;;4737460;30;20347;-75
2023/04/29 16:09:16;;;;;;;20.30;5.72;;;16.00;64.80;;;;;;4737382;30;20122;-75
2023/04/29 16:11:42;;;;;;;18.80;5.22;;;16.00;65.00;;;;;;4737351;30;20457;-74
2023/04/29 16:14:07;;;;;;;25.38;5.60;;;16.00;65.30;;;;;;4737087;30;20048;-75
2023/04/29 16:16:33;;;;;;;21.88;5.53;;;16.00;65.40;;;;;;4736291;30;20489;-73
2023/04/29 16:18:59;;;;;;;18.83;5.10;;;16.00;65.60;;;;;;4751546;30;20114;-74
2023/04/29 16:21:25;;;;;;;16.10;4.68;;;16.00;65.80;;;;;;4737023;30;20068;-74
2023/04/29 16:23:51;;;;;;;26.42;4.85;;;16.00;66.00;;;;;;4737058;30;20091;-75
2023/04/29 16:26:17;;;;;;;18.35;4.28;;;16.00;66.10;;;;;;4721821;30;20361;-74
2023/04/29 16:28:44;;;;;;;12.98;4.65;;;16.00;66.30;;;;;;4737127;30;20064;-74
2023/04/29 16:31:12;;;;;;;17.85;4.50;;;16.00;66.40;;;;;;4737095;30;20087;-74
2023/04/29 16:33:38;;;;;;;17.92;3.97;;;16.00;66.60;;;;;;4736719;30;20072;-74
2023/04/29 16:36:04;;;;;;;12.00;3.88;;;16.00;66.70;;;;;;4736632;30;20060;-75
2023/04/29 16:38:30;;;;;;;10.98;3.78;;;16.00;66.70;;;;;;4736793;30;20133;-74
2023/04/29 16:40:56;;;;;;;20.08;5.45;;;15.90;66.70;;;;;;4736388;30;20056;-73
2023/04/29 16:43:22;;;;;;;19.27;4.85;;;15.90;66.80;;;;;;4736663;30;20068;-78
2023/04/29 16:45:49;;;;;;;18.40;4.25;;;16.00;67.10;;;;;;4736576;30;20132;-72
2023/04/29 16:48:15;;;;;;;22.73;5.18;;;16.00;67.50;;;;;;4736401;30;20484;-78
2023/04/29 16:50:41;;;;;;;25.58;4.88;;;16.00;67.80;;;;;;4736575;30;20056;-75
2023/04/29 16:53:06;;;;;;;36.67;6.28;;;16.00;68.00;;;;;;4736854;30;20058;-73
2023/04/29 16:55:32;;;;;;;34.63;6.15;;;16.10;68.20;;;;;;4736803;30;20053;-74
2023/04/29 16:57:58;;;;;;;30.27;6.07;;;16.10;68.50;;;;;;4736884;30;20195;-74
2023/04/29 17:00:23;;;;;;;34.58;6.03;;;16.10;68.80;;;;;;4736786;30;20086;-73
2023/04/29 17:02:50;;;;;;;27.83;5.88;;;16.10;68.90;;;;;;4736444;30;20063;-73
2023/04/29 17:05:18;;;;;;;33.45;6.15;;;16.10;69.00;;;;;;4736393;30;20441;-74
2023/04/29 17:07:44;;;;;;;35.22;5.63;;;16.20;69.10;;;;;;4736874;30;20060;-74
2023/04/29 17:10:10;;;;;;;28.80;5.65;;;16.10;69.00;;;;;;4737216;30;20052;-73
2023/04/29 17:12:36;;;;;;;32.30;5.47;;;16.10;68.90;;;;;;4739342;30;20055;-69
2023/04/29 17:15:03;;;;;;;37.72;5.85;;;16.20;69.10;;;;;;4740066;30;20049;-69
2023/04/29 17:17:29;;;;;;;29.13;5.10;;;16.20;69.00;;;;;;4739935;30;20060;-69
2023/04/29 17:19:55;;;;;;;39.00;6.03;;;16.20;69.00;;;;;;4739726;30;20249;-69
2023/04/29 17:22:21;;;;;;;30.13;6.00;;;16.20;69.00;;;;;;4740225;30;20053;-69
2023/04/29 17:24:47;;;;;;;32.10;5.90;;;16.20;69.10;;;;;;4724547;30;20477;-69